createdAt,value
2019-05-17T00:01:28.977Z,49
2019-05-17T00:11:29.212Z,49
2019-05-17T00:21:29.430Z,46
2019-05-17T00:31:28.253Z,49
2019-05-17T00:41:28.861Z,49
2019-05-17T00:51:30.152Z,46
2019-05-17T01:01:29.241Z,45
2019-05-17T01:11:28.948Z,49
2019-05-17T01:21:30.108Z,45
2019-05-17T01:31:28.514Z,46
2019-05-17T01:41:29.611Z,46
2019-05-17T01:51:30.466Z,45
2019-05-17T02:01:29.475Z,49
2019-05-17T02:11:28.828Z,48
2019-05-17T02:21:29.310Z,48
2019-05-17T02:31:28.344Z,49
2019-05-17T02:41:27.970Z,48
2019-05-17T02:51:27.834Z,49
2019-05-17T03:01:28.540Z,49
2019-05-17T03:11:29.344Z,47
2019-05-17T03:21:28.218Z,47
2019-05-17T03:31:58.904Z,47
2019-05-17T03:41:35.086Z,47
2019-05-17T03:51:27.792Z,47
2019-05-17T04:01:32.154Z,48
2019-05-17T04:11:37.895Z,48
2019-05-17T04:21:28.049Z,51
2019-05-17T04:31:36.265Z,51
2019-05-17T04:41:55.602Z,47
2019-05-17T04:51:28.549Z,50
2019-05-17T05:01:34.109Z,47
2019-05-17T05:11:32.571Z,47
2019-05-17T05:21:27.530Z,48
2019-05-17T05:31:27.479Z,50
2019-05-17T05:41:31.848Z,47
2019-05-17T05:51:26.525Z,47
2019-05-17T06:01:28.438Z,51
2019-05-17T06:11:28.481Z,50
2019-05-17T06:21:31.779Z,48
2019-05-17T06:31:26.410Z,48
2019-05-17T06:41:29.152Z,49
2019-05-17T06:51:28.291Z,51
2019-05-17T07:01:30.361Z,49
2019-05-17T07:11:32.355Z,48
2019-05-17T07:21:30.923Z,51
2019-05-17T07:31:30.908Z,48
2019-05-17T07:41:30.425Z,49
2019-05-17T07:51:30.024Z,48
2019-05-17T08:01:29.519Z,50
2019-05-17T08:11:27.642Z,49
2019-05-17T08:21:31.155Z,48
2019-05-17T08:31:30.170Z,49
2019-05-17T08:41:31.528Z,47
2019-05-17T08:51:31.708Z,46
2019-05-17T09:01:30.030Z,49
2019-05-17T09:11:26.782Z,47
2019-05-17T09:21:27.886Z,48
2019-05-17T09:31:30.985Z,45
2019-05-17T09:41:29.974Z,44
2019-05-17T09:51:30.996Z,44
2019-05-17T10:01:26.762Z,43
2019-05-17T10:11:31.370Z,43
2019-05-17T10:21:29.906Z,43
2019-05-17T10:31:26.865Z,46
2019-05-17T10:41:30.663Z,43
2019-05-17T10:51:29.463Z,44
2019-05-17T11:01:31.103Z,43
2019-05-17T11:11:28.776Z,40
2019-05-17T11:21:27.268Z,42
2019-05-17T11:31:27.508Z,42
2019-05-17T11:41:28.583Z,40
2019-05-17T11:51:29.320Z,44
2019-05-17T12:01:27.530Z,41
2019-05-17T12:11:27.804Z,41
2019-05-17T12:21:27.943Z,40
2019-05-17T12:31:26.814Z,40
2019-05-17T12:41:27.458Z,44
2019-05-17T12:51:27.222Z,44
2019-05-17T13:01:27.175Z,43
2019-05-17T13:11:27.269Z,44
2019-05-17T13:21:27.709Z,41
2019-05-17T13:31:29.102Z,40
2019-05-17T13:41:28.524Z,40
2019-05-17T13:51:27.061Z,41
2019-05-17T14:01:26.703Z,44
2019-05-17T14:11:27.399Z,44
2019-05-17T14:21:27.500Z,44
2019-05-17T14:31:27.543Z,45
2019-05-17T14:41:27.193Z,43
2019-05-17T14:51:27.603Z,42
2019-05-17T15:01:27.912Z,41
2019-05-17T15:11:28.710Z,39
2019-05-17T15:21:26.778Z,39
2019-05-17T15:31:28.139Z,41
2019-05-17T15:41:27.122Z,43
2019-05-17T15:51:27.952Z,41
2019-05-17T16:01:28.062Z,40
2019-05-17T16:11:28.479Z,40
2019-05-17T16:21:28.608Z,40
2019-05-17T16:31:28.174Z,41
2019-05-17T16:41:29.653Z,40
2019-05-17T16:51:28.557Z,41
2019-05-17T17:01:28.411Z,40
2019-05-17T17:11:29.064Z,40
2019-05-17T17:21:27.371Z,41
2019-05-17T17:31:27.748Z,41
2019-05-17T17:41:28.705Z,40
2019-05-17T17:51:32.893Z,39
2019-05-17T18:01:28.587Z,40
2019-05-17T18:11:27.603Z,43
2019-05-17T18:21:33.205Z,44
2019-05-17T18:31:27.749Z,41
2019-05-17T18:41:29.175Z,41
2019-05-17T18:51:26.978Z,41
2019-05-17T19:01:26.785Z,45
2019-05-17T19:11:28.755Z,44
2019-05-17T19:21:26.527Z,42
2019-05-17T19:31:28.203Z,44
2019-05-17T19:41:28.433Z,41
2019-05-17T19:51:28.760Z,41
2019-05-17T20:01:27.255Z,41
2019-05-17T20:11:36.387Z,41
2019-05-17T20:21:28.343Z,41
2019-05-17T20:31:28.409Z,45
2019-05-17T20:41:28.230Z,44
2019-05-17T20:51:26.938Z,42
2019-05-17T21:01:27.646Z,44
2019-05-17T21:11:28.889Z,42
2019-05-17T21:21:27.955Z,41
2019-05-17T21:31:28.203Z,42
2019-05-17T21:41:27.086Z,45
2019-05-17T21:51:33.110Z,43
2019-05-17T22:01:28.150Z,42
2019-05-17T22:11:27.742Z,45
2019-05-17T22:21:29.547Z,42
2019-05-17T22:31:28.081Z,43
2019-05-17T22:41:28.902Z,42
2019-05-17T22:51:29.871Z,42
2019-05-17T23:01:30.304Z,42
2019-05-17T23:11:28.171Z,45
2019-05-17T23:21:28.739Z,46
2019-05-17T23:31:27.310Z,44
2019-05-17T23:41:28.293Z,43
2019-05-17T23:51:28.255Z,45
